createdAt,value
2022-11-20T00:02:02.471Z,7.45
2022-11-20T00:04:24.956Z,7.20
2022-11-20T00:06:47.953Z,7.47
2022-11-20T00:09:11.153Z,7.07
2022-11-20T00:11:33.843Z,6.80
2022-11-20T00:13:58.609Z,7.55
2022-11-20T00:16:23.623Z,7.95
2022-11-20T00:18:46.569Z,7.37
2022-11-20T00:21:14.064Z,7.40
2022-11-20T00:23:36.572Z,7.15
2022-11-20T00:26:06.640Z,8.02
2022-11-20T00:28:29.267Z,6.95
2022-11-20T00:30:52.100Z,6.37
2022-11-20T00:33:14.709Z,7.32
2022-11-20T00:35:37.278Z,7.57
2022-11-20T00:37:59.801Z,7.32
2022-11-20T00:40:22.425Z,7.30
2022-11-20T00:42:44.948Z,7.30
2022-11-20T00:45:08.090Z,6.95
2022-11-20T00:47:30.618Z,7.90
2022-11-20T00:49:53.280Z,7.55
2022-11-20T00:52:16.131Z,7.65
2022-11-20T00:54:38.806Z,6.63
2022-11-20T00:57:01.364Z,7.15
2022-11-20T00:59:24.190Z,7.30
2022-11-20T01:01:46.977Z,7.32
2022-11-20T01:04:09.653Z,7.57
2022-11-20T01:06:37.628Z,7.00
2022-11-20T01:09:04.152Z,7.65
2022-11-20T01:11:38.890Z,6.63
2022-11-20T01:14:03.583Z,7.93
2022-11-20T01:16:34.984Z,7.15
2022-11-20T01:19:00.643Z,7.17
2022-11-20T01:21:25.439Z,6.90
2022-11-20T01:23:49.294Z,7.32
2022-11-20T01:26:14.950Z,7.38
2022-11-20T01:28:37.830Z,7.22
2022-11-20T01:31:01.208Z,7.70
2022-11-20T01:33:24.178Z,6.32
2022-11-20T01:35:48.582Z,6.97
2022-11-20T01:38:11.681Z,7.30
2022-11-20T01:40:34.280Z,7.65
2022-11-20T01:43:23.694Z,7.90
2022-11-20T01:46:16.257Z,6.72
2022-11-20T01:48:51.016Z,7.13
2022-11-20T01:51:21.556Z,6.85
2022-11-20T01:53:45.010Z,7.53
2022-11-20T01:56:12.435Z,8.03
2022-11-20T01:58:39.581Z,8.13
2022-11-20T02:01:02.513Z,8.02
2022-11-20T02:03:25.725Z,7.80
2022-11-20T02:05:58.646Z,7.63
2022-11-20T02:08:22.772Z,7.27
2022-11-20T02:10:45.401Z,8.18
2022-11-20T02:13:27.433Z,8.40
2022-11-20T02:15:50.595Z,9.43
2022-11-20T02:18:15.884Z,8.20
2022-11-20T02:20:40.476Z,8.30
2022-11-20T02:23:18.024Z,8.27
2022-11-20T02:25:42.869Z,8.60
2022-11-20T02:28:06.432Z,8.80
2022-11-20T02:30:29.082Z,8.20
2022-11-20T02:32:51.877Z,9.13
2022-11-20T02:35:20.474Z,8.77
2022-11-20T02:37:48.103Z,9.00
2022-11-20T02:40:11.288Z,9.40
2022-11-20T02:42:33.826Z,8.98
2022-11-20T02:44:56.448Z,8.47
2022-11-20T02:47:19.112Z,9.15
2022-11-20T02:49:41.943Z,9.68
2022-11-20T02:52:04.676Z,9.55
2022-11-20T02:54:27.289Z,9.15
2022-11-20T02:56:49.834Z,9.97
2022-11-20T02:59:12.317Z,9.93
2022-11-20T03:01:35.105Z,9.70
2022-11-20T03:03:58.640Z,9.93
2022-11-20T03:06:21.399Z,8.90
2022-11-20T03:08:44.151Z,9.67
2022-11-20T03:11:08.260Z,10.52
2022-11-20T03:13:30.971Z,10.32
2022-11-20T03:15:53.607Z,11.05
2022-11-20T03:18:16.868Z,11.05
2022-11-20T03:20:39.648Z,11.57
2022-11-20T03:23:02.551Z,10.82
2022-11-20T03:25:25.114Z,10.10
2022-11-20T03:27:47.631Z,10.40
2022-11-20T03:30:10.799Z,9.93
2022-11-20T03:32:33.408Z,10.13
2022-11-20T03:34:56.127Z,10.80
2022-11-20T03:37:18.655Z,11.52
2022-11-20T03:39:41.148Z,11.23
2022-11-20T03:42:03.901Z,10.65
2022-11-20T03:44:26.507Z,11.27
2022-11-20T03:46:49.356Z,10.43
2022-11-20T03:49:11.987Z,11.07
2022-11-20T03:51:36.971Z,11.73
2022-11-20T03:54:03.585Z,10.93
2022-11-20T03:56:28.538Z,11.20
2022-11-20T03:58:51.533Z,11.55
2022-11-20T04:01:22.927Z,11.13
2022-11-20T04:03:46.455Z,11.43
2022-11-20T04:06:13.230Z,11.18
2022-11-20T04:08:36.222Z,10.27
2022-11-20T04:11:13.130Z,10.50
2022-11-20T04:13:35.737Z,10.55
2022-11-20T04:15:58.960Z,10.18
2022-11-20T04:18:21.626Z,10.82
2022-11-20T04:20:44.248Z,11.27
2022-11-20T04:23:06.835Z,10.52
2022-11-20T04:25:29.449Z,10.73
2022-11-20T04:27:52.127Z,10.75
2022-11-20T04:30:15.028Z,11.10
2022-11-20T04:32:37.678Z,10.33
2022-11-20T04:35:01.209Z,10.52
2022-11-20T04:37:23.726Z,10.23
2022-11-20T04:39:46.334Z,9.88
2022-11-20T04:42:29.160Z,10.10
2022-11-20T04:44:51.651Z,9.30
2022-11-20T04:47:14.153Z,9.25
2022-11-20T04:49:36.719Z,9.25
2022-11-20T04:51:59.447Z,8.75
2022-11-20T04:54:22.174Z,8.95
2022-11-20T04:56:44.918Z,8.73
2022-11-20T04:59:07.539Z,8.85
2022-11-20T05:01:30.474Z,10.88
2022-11-20T05:03:53.429Z,11.32
2022-11-20T05:06:19.818Z,11.55
2022-11-20T05:08:42.737Z,10.17
2022-11-20T05:11:08.653Z,11.15
2022-11-20T05:13:31.504Z,11.73
2022-11-20T05:15:54.047Z,12.63
2022-11-20T05:18:16.666Z,11.05
2022-11-20T05:20:39.221Z,12.40
2022-11-20T05:23:01.789Z,12.05
2022-11-20T05:25:24.319Z,10.18
2022-11-20T05:27:47.302Z,10.10
2022-11-20T05:30:10.676Z,10.60
2022-11-20T05:32:33.339Z,9.23
2022-11-20T05:34:55.904Z,9.20
2022-11-20T05:37:19.587Z,8.55
2022-11-20T05:39:42.216Z,8.60
2022-11-20T05:42:23.572Z,8.38
2022-11-20T05:44:46.064Z,8.57
2022-11-20T05:47:08.752Z,8.63
2022-11-20T05:49:31.423Z,8.63
2022-11-20T05:51:54.029Z,9.23
2022-11-20T05:54:16.621Z,9.27
2022-11-20T05:56:39.112Z,8.20
2022-11-20T05:59:01.683Z,9.27
2022-11-20T06:01:26.345Z,8.48
2022-11-20T06:03:51.548Z,8.35
2022-11-20T06:06:16.362Z,8.15
2022-11-20T06:08:39.217Z,8.40
2022-11-20T06:11:09.713Z,8.80
2022-11-20T06:13:32.469Z,9.05
2022-11-20T06:15:55.291Z,9.65
2022-11-20T06:18:18.832Z,8.40
2022-11-20T06:20:42.318Z,8.93
2022-11-20T06:23:04.967Z,8.15
2022-11-20T06:25:27.559Z,8.35
2022-11-20T06:27:50.263Z,8.45
2022-11-20T06:30:13.398Z,8.13
2022-11-20T06:32:36.004Z,8.83
2022-11-20T06:34:58.609Z,8.82
2022-11-20T06:37:21.589Z,9.07
2022-11-20T06:39:44.308Z,8.50
2022-11-20T06:42:06.910Z,8.43
2022-11-20T06:44:29.522Z,8.37
2022-11-20T06:46:52.102Z,8.68
2022-11-20T06:49:14.711Z,7.93
2022-11-20T06:51:37.316Z,8.75
2022-11-20T06:54:00.638Z,8.45
2022-11-20T06:56:23.284Z,8.03
2022-11-20T06:58:46.036Z,8.65
2022-11-20T07:01:13.638Z,8.43
2022-11-20T07:03:36.501Z,7.75
2022-11-20T07:06:00.898Z,8.88
2022-11-20T07:08:24.540Z,8.50
2022-11-20T07:10:47.176Z,8.88
2022-11-20T07:13:09.706Z,8.68
2022-11-20T07:15:32.284Z,9.15
2022-11-20T07:17:54.989Z,8.48
2022-11-20T07:20:18.010Z,8.63
2022-11-20T07:22:40.755Z,8.48
2022-11-20T07:25:03.436Z,8.75
2022-11-20T07:27:26.195Z,8.25
2022-11-20T07:29:48.805Z,8.25
2022-11-20T07:32:11.436Z,8.40
2022-11-20T07:34:34.031Z,8.73
2022-11-20T07:36:56.648Z,8.27
2022-11-20T07:39:19.678Z,8.80
2022-11-20T07:41:42.619Z,9.20
2022-11-20T07:44:05.499Z,9.27
2022-11-20T07:46:28.140Z,8.68
2022-11-20T07:48:50.911Z,8.77
2022-11-20T07:51:14.487Z,8.68
2022-11-20T07:53:37.201Z,9.25
2022-11-20T07:56:04.142Z,8.23
2022-11-20T07:58:29.552Z,8.73
2022-11-20T08:00:52.207Z,8.40
2022-11-20T08:03:17.100Z,8.80
2022-11-20T08:05:41.741Z,9.52
2022-11-20T08:08:04.603Z,8.50
2022-11-20T08:10:27.273Z,8.40
2022-11-20T08:13:12.201Z,9.52
2022-11-20T08:15:35.457Z,9.27
2022-11-20T08:20:55.253Z,9.63
2022-11-20T08:23:17.745Z,10.25
2022-11-20T08:25:40.419Z,10.20
2022-11-20T08:28:19.855Z,9.93
2022-11-20T08:30:43.772Z,9.75
2022-11-20T08:33:09.433Z,9.97
2022-11-20T08:35:38.856Z,10.35
2022-11-20T08:38:02.346Z,11.07
2022-11-20T08:40:25.157Z,10.25
2022-11-20T08:42:49.584Z,13.15
2022-11-20T08:45:12.131Z,13.63
2022-11-20T08:47:34.651Z,12.32
2022-11-20T08:49:57.308Z,11.93
2022-11-20T08:52:20.019Z,11.15
2022-11-20T08:54:42.799Z,10.65
2022-11-20T08:57:05.349Z,10.40
2022-11-20T08:59:50.964Z,11.65
2022-11-20T09:02:10.758Z,10.18
2022-11-20T09:04:33.320Z,10.00
2022-11-20T09:07:01.289Z,10.15
2022-11-20T09:09:24.558Z,9.57
2022-11-20T09:11:47.544Z,9.40
2022-11-20T09:14:10.074Z,9.10
2022-11-20T09:16:32.819Z,8.30
2022-11-20T09:21:38.512Z,8.80
2022-11-20T09:24:01.145Z,8.65
2022-11-20T09:26:23.706Z,8.77
2022-11-20T09:28:47.036Z,9.38
2022-11-20T09:31:16.716Z,9.07
2022-11-20T09:33:39.413Z,9.57
2022-11-20T09:36:02.083Z,9.00
2022-11-20T09:38:24.944Z,9.80
2022-11-20T09:41:03.584Z,9.25
2022-11-20T09:43:39.820Z,9.35
2022-11-20T09:46:20.881Z,9.67
2022-11-20T09:48:52.161Z,9.82
2022-11-20T09:51:38.030Z,9.93
2022-11-20T09:54:23.317Z,10.98
2022-11-20T09:56:54.011Z,10.48
2022-11-20T09:59:43.643Z,10.82
2022-11-20T10:02:16.285Z,9.77
2022-11-20T10:04:44.692Z,10.57
2022-11-20T10:07:33.106Z,9.52
2022-11-20T10:09:57.622Z,9.65
2022-11-20T10:12:48.402Z,10.37
2022-11-20T10:15:39.468Z,10.13
2022-11-20T10:18:18.266Z,10.55
2022-11-20T10:20:46.757Z,10.02
2022-11-20T10:23:48.163Z,10.00
2022-11-20T10:26:56.549Z,9.87
2022-11-20T10:29:24.747Z,10.43
2022-11-20T10:31:53.272Z,11.20
2022-11-20T10:34:34.754Z,10.65
2022-11-20T10:37:04.689Z,12.25
2022-11-20T10:39:32.540Z,11.07
2022-11-20T10:41:55.717Z,10.20
2022-11-20T10:44:40.393Z,10.60
2022-11-20T10:47:05.908Z,10.98
2022-11-20T10:49:29.092Z,11.85
2022-11-20T10:52:06.498Z,11.60
2022-11-20T10:54:46.851Z,10.52
2022-11-20T10:57:45.133Z,10.73
2022-11-20T11:00:10.816Z,10.88
2022-11-20T11:02:49.759Z,10.20
2022-11-20T11:05:44.148Z,10.27
2022-11-20T11:08:17.292Z,10.68
2022-11-20T11:10:52.275Z,10.65
2022-11-20T11:13:26.338Z,12.20
2022-11-20T11:15:48.886Z,11.98
2022-11-20T11:18:12.466Z,11.13
2022-11-20T11:20:35.330Z,11.43
2022-11-20T11:22:59.760Z,11.25
2022-11-20T11:25:38.335Z,12.00
2022-11-20T11:28:19.875Z,11.55
2022-11-20T11:30:44.832Z,12.60
2022-11-20T11:33:11.587Z,11.70
2022-11-20T11:35:34.756Z,11.43
2022-11-20T11:38:08.241Z,12.48
2022-11-20T11:40:33.753Z,11.65
2022-11-20T11:43:02.740Z,12.77
2022-11-20T11:45:25.954Z,12.90
2022-11-20T11:47:49.712Z,13.65
2022-11-20T11:50:17.347Z,12.57
2022-11-20T11:53:19.475Z,13.38
2022-11-20T11:56:07.755Z,13.37
2022-11-20T11:58:53.569Z,13.30
2022-11-20T12:01:32.834Z,12.88
2022-11-20T12:04:37.366Z,12.88
2022-11-20T12:07:24.242Z,12.98
2022-11-20T12:09:55.491Z,11.93
2022-11-20T12:12:23.539Z,12.07
2022-11-20T12:14:51.229Z,12.55
2022-11-20T12:17:15.143Z,12.57
2022-11-20T12:19:37.798Z,13.07
2022-11-20T12:22:14.867Z,14.73
2022-11-20T12:25:15.888Z,13.52
2022-11-20T12:28:19.154Z,13.85
2022-11-20T12:31:02.056Z,13.20
2022-11-20T12:33:51.487Z,13.90
2022-11-20T12:36:26.208Z,13.20
2022-11-20T12:39:31.193Z,13.07
2022-11-20T12:42:37.736Z,13.30
2022-11-20T12:45:32.793Z,13.30
2022-11-20T12:48:18.333Z,13.38
2022-11-20T12:51:21.606Z,14.00
2022-11-20T12:54:09.696Z,12.23
2022-11-20T12:57:03.781Z,13.48
2022-11-20T12:59:44.895Z,13.48
2022-11-20T13:02:29.367Z,13.82
2022-11-20T13:05:16.673Z,14.40
2022-11-20T13:07:39.891Z,13.65
2022-11-20T13:10:07.566Z,12.98
2022-11-20T13:12:37.145Z,14.77
2022-11-20T13:15:15.030Z,14.07
2022-11-20T13:17:44.238Z,13.05
2022-11-20T13:20:17.628Z,13.68
2022-11-20T13:22:48.995Z,14.13
2022-11-20T13:25:32.437Z,13.40
2022-11-20T13:27:57.655Z,14.23
2022-11-20T13:30:26.054Z,14.97
2022-11-20T13:32:54.018Z,13.75
2022-11-20T13:35:29.892Z,15.75
2022-11-20T13:38:14.289Z,14.20
2022-11-20T13:40:53.308Z,14.57
2022-11-20T13:43:39.815Z,14.98
2022-11-20T13:46:09.175Z,14.15
2022-11-20T13:48:49.914Z,14.98
2022-11-20T13:51:36.925Z,14.40
2022-11-20T13:54:35.259Z,15.20
2022-11-20T13:57:06.796Z,14.63
2022-11-20T13:59:42.071Z,14.48
2022-11-20T14:02:13.181Z,15.75
2022-11-20T14:04:43.323Z,15.85
2022-11-20T14:07:10.281Z,15.63
2022-11-20T14:09:35.222Z,16.27
2022-11-20T14:11:58.431Z,15.57
2022-11-20T14:14:24.312Z,15.57
2022-11-20T14:16:48.910Z,15.48
2022-11-20T14:19:20.721Z,14.70
2022-11-20T14:21:56.017Z,15.23
2022-11-20T14:24:24.473Z,15.60
2022-11-20T14:26:48.529Z,15.85
2022-11-20T14:29:31.658Z,15.80
2022-11-20T14:31:56.730Z,16.00
2022-11-20T14:34:25.839Z,14.53
2022-11-20T14:36:49.323Z,14.75
2022-11-20T14:39:20.947Z,15.60
2022-11-20T14:41:52.511Z,16.42
2022-11-20T14:44:15.689Z,16.33
2022-11-20T14:46:38.921Z,16.27
2022-11-20T14:49:05.061Z,16.17
2022-11-20T14:51:42.309Z,17.60
2022-11-20T14:54:17.133Z,17.25
2022-11-20T14:56:40.160Z,18.17
2022-11-20T14:59:03.386Z,19.27
2022-11-20T15:01:29.071Z,18.13
2022-11-20T15:04:01.265Z,17.10
2022-11-20T15:06:27.909Z,16.13
2022-11-20T15:08:54.332Z,15.77
2022-11-20T15:11:20.653Z,15.27
2022-11-20T15:13:43.396Z,15.35
2022-11-20T15:16:20.529Z,15.65
2022-11-20T15:18:43.359Z,15.60
2022-11-20T15:21:12.952Z,16.00
2022-11-20T15:23:35.698Z,17.37
2022-11-20T15:25:58.850Z,18.25
2022-11-20T15:28:34.926Z,17.63
2022-11-20T15:30:57.979Z,16.73
2022-11-20T15:33:21.250Z,17.05
2022-11-20T15:35:45.116Z,16.93
2022-11-20T15:38:07.765Z,16.30
2022-11-20T15:40:30.567Z,15.65
2022-11-20T15:43:12.538Z,15.48
2022-11-20T15:45:47.715Z,15.55
2022-11-20T15:48:14.671Z,15.20
2022-11-20T15:50:42.222Z,15.38
2022-11-20T15:53:05.456Z,16.52
2022-11-20T15:55:28.316Z,15.13
2022-11-20T15:57:50.857Z,17.23
2022-11-20T16:00:16.178Z,16.10
2022-11-20T16:02:41.138Z,18.65
2022-11-20T16:05:04.094Z,17.73
2022-11-20T16:07:27.157Z,16.65
2022-11-20T16:09:50.022Z,17.15
2022-11-20T16:12:35.492Z,17.37
2022-11-20T16:15:16.599Z,15.93
2022-11-20T16:17:45.136Z,15.77
2022-11-20T16:20:14.176Z,14.80
2022-11-20T16:22:37.072Z,15.45
2022-11-20T16:24:59.925Z,14.47
2022-11-20T16:27:22.742Z,14.15
2022-11-20T16:29:45.508Z,13.75
2022-11-20T16:32:09.688Z,13.43
2022-11-20T16:34:32.627Z,14.95
2022-11-20T16:36:55.411Z,13.93
2022-11-20T16:39:23.432Z,14.25
2022-11-20T16:41:46.906Z,14.95
2022-11-20T16:44:11.802Z,13.90
2022-11-20T16:46:34.748Z,14.85
2022-11-20T16:49:06.099Z,14.83
2022-11-20T16:51:30.777Z,14.70
2022-11-20T16:53:56.037Z,14.48
2022-11-20T16:56:24.432Z,14.95
2022-11-20T16:58:49.007Z,14.73
2022-11-20T17:01:14.291Z,14.03
2022-11-20T17:03:41.489Z,14.48
2022-11-20T17:06:14.730Z,14.27
2022-11-20T17:08:37.546Z,14.32
2022-11-20T17:11:05.999Z,13.63
2022-11-20T17:13:30.563Z,14.63
2022-11-20T17:15:53.395Z,15.10
2022-11-20T17:18:16.372Z,15.55
2022-11-20T17:20:39.144Z,18.75
2022-11-20T17:23:02.094Z,22.45
2022-11-20T17:25:24.688Z,21.90
2022-11-20T17:27:47.491Z,20.55
2022-11-20T17:30:10.516Z,18.20
2022-11-20T17:32:33.494Z,16.85
2022-11-20T17:34:56.440Z,17.55
2022-11-20T17:37:19.420Z,16.80
2022-11-20T17:39:42.443Z,16.70
2022-11-20T17:42:23.912Z,18.48
2022-11-20T17:44:47.465Z,17.33
2022-11-20T17:47:10.081Z,18.15
2022-11-20T17:49:32.956Z,18.67
2022-11-20T17:51:55.956Z,17.75
2022-11-20T17:54:18.835Z,17.67
2022-11-20T17:56:59.890Z,17.73
2022-11-20T17:59:23.028Z,16.00
2022-11-20T18:01:46.224Z,15.67
2022-11-20T18:04:09.594Z,16.48
2022-11-20T18:06:32.709Z,17.25
2022-11-20T18:08:55.581Z,18.80
2022-11-20T18:11:23.908Z,21.13
2022-11-20T18:14:07.661Z,20.67
2022-11-20T18:16:32.873Z,20.08
2022-11-20T18:18:59.681Z,20.60
2022-11-20T18:21:23.852Z,19.70
2022-11-20T18:23:46.699Z,18.98
2022-11-20T18:26:09.378Z,19.07
2022-11-20T18:28:32.234Z,17.65
2022-11-20T18:30:54.894Z,15.65
2022-11-20T18:33:18.739Z,15.05
2022-11-20T18:35:43.274Z,14.98
2022-11-20T18:38:06.757Z,14.90
2022-11-20T18:40:29.340Z,14.68
2022-11-20T18:43:11.085Z,15.07
2022-11-20T18:45:33.958Z,14.98
2022-11-20T18:47:56.922Z,14.43
2022-11-20T18:50:20.383Z,13.83
2022-11-20T18:52:44.780Z,13.25
2022-11-20T18:55:08.744Z,13.52
2022-11-20T18:57:32.454Z,13.90
2022-11-20T19:00:02.172Z,13.63
2022-11-20T19:02:30.111Z,13.67
2022-11-20T19:04:53.157Z,14.18
2022-11-20T19:07:16.413Z,14.13
2022-11-20T19:09:40.793Z,14.18
2022-11-20T19:12:04.670Z,15.35
2022-11-20T19:14:27.534Z,15.20
2022-11-20T19:16:51.463Z,15.52
2022-11-20T19:19:15.020Z,16.15
2022-11-20T19:21:38.175Z,18.00
2022-11-20T19:24:03.005Z,16.63
2022-11-20T19:26:26.835Z,16.27
2022-11-20T19:28:50.384Z,16.65
2022-11-20T19:31:19.145Z,17.65
2022-11-20T19:33:47.079Z,17.85
2022-11-20T19:36:18.506Z,17.58
2022-11-20T19:38:47.630Z,18.10
2022-11-20T19:41:11.104Z,17.85
2022-11-20T19:43:35.299Z,18.23
2022-11-20T19:45:58.713Z,18.75
2022-11-20T19:48:21.340Z,18.70
2022-11-20T19:50:44.464Z,18.83
2022-11-20T19:53:07.510Z,18.23
2022-11-20T19:55:30.415Z,20.00
2022-11-20T19:57:53.368Z,19.17
2022-11-20T20:00:24.524Z,20.67
2022-11-20T20:02:51.223Z,21.13
2022-11-20T20:05:14.073Z,20.13
2022-11-20T20:07:40.172Z,19.58
2022-11-20T20:10:03.204Z,21.33
2022-11-20T20:12:26.114Z,21.02
2022-11-20T20:14:48.628Z,20.03
2022-11-20T20:17:12.542Z,19.02
2022-11-20T20:19:36.065Z,21.00
2022-11-20T20:21:58.839Z,20.58
2022-11-20T20:24:21.294Z,20.13
2022-11-20T20:26:44.439Z,21.47
2022-11-20T20:29:07.462Z,20.33
2022-11-20T20:31:32.038Z,20.42
2022-11-20T20:33:55.336Z,21.67
2022-11-20T20:36:19.579Z,20.13
2022-11-20T20:38:43.454Z,20.20
2022-11-20T20:41:06.851Z,19.80
2022-11-20T20:43:30.000Z,20.73
2022-11-20T20:45:53.990Z,19.95
2022-11-20T20:48:19.418Z,19.20
2022-11-20T20:50:52.637Z,19.60
2022-11-20T20:53:15.464Z,18.27
2022-11-20T20:55:38.735Z,17.65
2022-11-20T20:58:01.795Z,17.15
2022-11-20T21:00:24.384Z,17.15
2022-11-20T21:02:47.128Z,17.63
2022-11-20T21:05:10.094Z,17.42
2022-11-20T21:07:32.866Z,18.30
2022-11-20T21:09:55.680Z,18.95
2022-11-20T21:12:19.503Z,18.05
2022-11-20T21:14:42.632Z,17.90
2022-11-20T21:17:05.439Z,17.88
2022-11-20T21:19:28.213Z,18.27
2022-11-20T21:22:00.293Z,17.65
2022-11-20T21:24:23.603Z,18.30
2022-11-20T21:26:46.605Z,18.57
2022-11-20T21:29:09.905Z,19.90
2022-11-20T21:31:32.609Z,25.23
2022-11-20T21:33:56.880Z,27.92
2022-11-20T21:36:21.488Z,21.55
2022-11-20T21:38:44.703Z,20.13
2022-11-20T21:41:09.619Z,17.85
2022-11-20T21:43:32.746Z,19.48
2022-11-20T21:46:01.314Z,17.40
2022-11-20T21:48:28.468Z,18.30
2022-11-20T21:50:51.242Z,18.83
2022-11-20T21:53:13.902Z,17.80
2022-11-20T21:55:36.742Z,18.83
2022-11-20T21:57:59.364Z,18.35
2022-11-20T22:00:22.038Z,19.55
2022-11-20T22:02:44.553Z,19.23
2022-11-20T22:05:08.068Z,18.95
2022-11-20T22:07:30.726Z,18.95
2022-11-20T22:09:53.349Z,18.85
2022-11-20T22:12:15.933Z,19.58
2022-11-20T22:14:38.440Z,19.77
2022-11-20T22:17:01.284Z,19.10
2022-11-20T22:19:24.267Z,20.38
2022-11-20T22:21:47.297Z,19.30
2022-11-20T22:24:13.299Z,20.25
2022-11-20T22:26:40.225Z,20.33
2022-11-20T22:29:03.162Z,20.15
2022-11-20T22:31:28.241Z,18.70
2022-11-20T22:33:51.313Z,19.05
2022-11-20T22:36:19.731Z,18.75
2022-11-20T22:38:42.969Z,17.60
2022-11-20T22:41:06.750Z,18.10
2022-11-20T22:43:29.565Z,18.10
2022-11-20T22:45:52.265Z,17.33
2022-11-20T22:48:14.914Z,18.33
2022-11-20T22:50:37.444Z,17.63
2022-11-20T22:53:00.108Z,17.38
2022-11-20T22:55:22.961Z,17.05
2022-11-20T22:57:45.785Z,17.67
2022-11-20T23:00:09.181Z,17.63
2022-11-20T23:02:31.849Z,17.67
2022-11-20T23:04:54.508Z,17.73
2022-11-20T23:07:17.168Z,17.63
2022-11-20T23:09:39.910Z,17.20
2022-11-20T23:12:02.481Z,17.42
2022-11-20T23:14:27.716Z,18.10
2022-11-20T23:16:50.750Z,17.73
2022-11-20T23:19:14.725Z,16.98
2022-11-20T23:21:39.147Z,17.10
2022-11-20T23:24:02.104Z,15.70
2022-11-20T23:26:27.598Z,15.83
2022-11-20T23:28:50.463Z,17.25
2022-11-20T23:31:14.399Z,16.73
2022-11-20T23:33:41.562Z,15.77
2022-11-20T23:36:05.121Z,14.65
2022-11-20T23:38:27.788Z,15.87
2022-11-20T23:40:51.722Z,15.82
2022-11-20T23:43:15.189Z,15.52
2022-11-20T23:45:39.534Z,16.98
2022-11-20T23:48:02.173Z,15.35
2022-11-20T23:50:24.992Z,15.53
2022-11-20T23:52:47.772Z,15.90
2022-11-20T23:55:10.281Z,16.23
2022-11-20T23:57:32.852Z,16.60
2022-11-20T23:59:55.661Z,15.77
